createdAt,value
2018-10-11T00:02:05.763Z,15.30
2018-10-11T00:04:34.059Z,15.03
2018-10-11T00:07:02.782Z,14.80
2018-10-11T00:09:31.040Z,14.54
2018-10-11T00:11:59.336Z,14.31
2018-10-11T00:14:27.630Z,14.12
2018-10-11T00:16:55.902Z,13.86
2018-10-11T00:19:24.187Z,13.96
2018-10-11T00:21:52.471Z,14.04
2018-10-11T00:24:20.759Z,14.13
2018-10-11T00:26:49.030Z,13.73
2018-10-11T00:29:17.315Z,13.41
2018-10-11T00:31:45.583Z,12.99
2018-10-11T00:34:13.874Z,12.89
2018-10-11T00:36:42.247Z,12.77
2018-10-11T00:39:10.537Z,12.92
2018-10-11T00:41:38.812Z,13.19
2018-10-11T00:44:07.239Z,13.51
2018-10-11T00:46:35.518Z,13.90
2018-10-11T00:49:03.879Z,13.85
2018-10-11T00:51:32.146Z,13.85
2018-10-11T00:54:00.433Z,13.79
2018-10-11T00:56:28.894Z,13.61
2018-10-11T00:58:57.186Z,13.26
2018-10-11T01:01:25.800Z,13.43
2018-10-11T01:03:54.109Z,13.46
2018-10-11T01:06:22.371Z,13.15
2018-10-11T01:08:50.655Z,12.83
2018-10-11T01:11:18.936Z,12.64
2018-10-11T01:13:47.226Z,12.60
2018-10-11T01:16:15.498Z,12.32
2018-10-11T01:18:43.870Z,12.03
2018-10-11T01:21:12.134Z,11.95
2018-10-11T01:23:40.467Z,11.66
2018-10-11T01:26:08.727Z,11.56
2018-10-11T01:28:37.030Z,11.39
2018-10-11T01:31:10.416Z,11.37
2018-10-11T01:33:38.687Z,11.31
2018-10-11T01:36:06.979Z,11.25
2018-10-11T01:38:35.326Z,11.12
2018-10-11T01:41:03.641Z,11.05
2018-10-11T01:43:32.051Z,10.99
2018-10-11T01:46:00.357Z,11.09
2018-10-11T01:48:28.626Z,11.05
2018-10-11T01:50:56.936Z,11.00
2018-10-11T01:53:25.238Z,11.06
2018-10-11T01:55:53.519Z,11.12
2018-10-11T01:58:22.075Z,10.89
2018-10-11T02:00:50.375Z,10.89
2018-10-11T02:03:18.679Z,10.97
2018-10-11T02:05:46.986Z,11.13
2018-10-11T02:08:15.256Z,11.23
2018-10-11T02:10:43.554Z,11.40
2018-10-11T02:13:11.836Z,11.97
2018-10-11T02:15:40.120Z,12.48
2018-10-11T02:18:08.387Z,12.97
2018-10-11T02:20:36.678Z,13.28
2018-10-11T02:23:04.939Z,13.48
2018-10-11T02:25:33.271Z,13.65
2018-10-11T02:28:01.536Z,13.77
2018-10-11T02:30:29.829Z,13.85
2018-10-11T02:32:58.110Z,13.90
2018-10-11T02:35:26.398Z,13.88
2018-10-11T02:37:54.663Z,13.92
2018-10-11T02:40:22.936Z,14.02
2018-10-11T02:42:51.224Z,14.12
2018-10-11T02:45:19.500Z,14.16
2018-10-11T02:47:47.798Z,14.19
2018-10-11T02:50:16.072Z,14.10
2018-10-11T02:52:44.343Z,14.09
2018-10-11T02:55:20.684Z,14.10
2018-10-11T02:58:00.447Z,14.16
2018-10-11T03:00:29.452Z,14.25
2018-10-11T03:02:57.932Z,14.29
2018-10-11T03:05:26.243Z,14.14
2018-10-11T03:07:54.583Z,14.16
2018-10-11T03:10:23.272Z,14.16
2018-10-11T03:12:51.559Z,14.19
2018-10-11T03:15:19.843Z,14.19
2018-10-11T03:17:48.135Z,14.20
2018-10-11T03:20:16.431Z,14.28
2018-10-11T03:22:44.738Z,14.23
2018-10-11T03:25:13.035Z,14.21
2018-10-11T03:27:41.348Z,14.24
2018-10-11T03:30:09.646Z,14.27
2018-10-11T03:32:37.922Z,14.22
2018-10-11T03:35:06.187Z,14.20
2018-10-11T03:37:34.462Z,14.21
2018-10-11T03:40:02.758Z,14.22
2018-10-11T03:42:40.306Z,14.17
2018-10-11T03:45:08.611Z,14.16
2018-10-11T03:47:36.895Z,14.21
2018-10-11T03:50:05.197Z,14.30
2018-10-11T03:52:33.627Z,14.16
2018-10-11T03:55:01.901Z,14.21
2018-10-11T03:57:30.190Z,14.18
2018-10-11T03:59:58.462Z,14.23
2018-10-11T04:02:26.878Z,14.14
2018-10-11T04:04:56.147Z,14.19
2018-10-11T04:07:24.763Z,14.22
2018-10-11T04:09:53.058Z,14.09
2018-10-11T04:12:21.350Z,14.05
2018-10-11T04:14:50.079Z,13.98
2018-10-11T04:17:18.371Z,13.77
2018-10-11T04:19:46.634Z,13.71
2018-10-11T04:22:14.932Z,13.51
2018-10-11T04:24:43.222Z,13.49
2018-10-11T04:27:11.485Z,13.38
2018-10-11T04:29:39.783Z,13.70
2018-10-11T04:32:08.469Z,13.47
2018-10-11T04:34:36.780Z,13.41
2018-10-11T04:37:05.044Z,13.36
2018-10-11T04:39:33.342Z,13.19
2018-10-11T04:42:01.624Z,13.33
2018-10-11T04:44:34.515Z,13.47
2018-10-11T04:47:03.359Z,13.65
2018-10-11T04:49:31.920Z,13.57
2018-10-11T04:52:00.199Z,13.61
2018-10-11T04:54:28.508Z,13.61
2018-10-11T04:56:56.823Z,13.58
2018-10-11T04:59:25.175Z,13.58
2018-10-11T05:01:53.483Z,13.50
2018-10-11T05:04:21.778Z,13.49
2018-10-11T05:06:50.063Z,13.56
2018-10-11T05:09:18.387Z,13.45
2018-10-11T05:11:46.710Z,13.50
2018-10-11T05:14:15.581Z,13.32
2018-10-11T05:16:43.899Z,13.20
2018-10-11T05:19:12.256Z,13.13
2018-10-11T05:21:41.082Z,13.25
2018-10-11T05:24:09.390Z,13.11
2018-10-11T05:26:37.715Z,12.80
2018-10-11T05:29:06.035Z,12.57
2018-10-11T05:31:34.354Z,12.69
2018-10-11T05:34:02.647Z,12.50
2018-10-11T05:36:30.930Z,12.35
2018-10-11T05:38:59.247Z,12.35
2018-10-11T05:41:27.575Z,12.04
2018-10-11T05:43:56.015Z,11.88
2018-10-11T05:46:33.438Z,11.74
2018-10-11T05:49:03.716Z,11.52
2018-10-11T05:51:32.383Z,11.43
2018-10-11T05:54:01.131Z,11.38
2018-10-11T05:56:30.740Z,11.37
2018-10-11T05:58:59.511Z,11.30
2018-10-11T06:01:27.903Z,11.21
2018-10-11T06:03:57.056Z,11.21
2018-10-11T06:06:25.376Z,11.11
2018-10-11T06:08:53.788Z,11.17
2018-10-11T06:11:22.141Z,11.28
2018-10-11T06:13:51.211Z,11.44
2018-10-11T06:16:19.544Z,11.31
2018-10-11T06:18:47.874Z,11.42
2018-10-11T06:21:16.235Z,11.39
2018-10-11T06:23:44.536Z,11.29
2018-10-11T06:26:13.331Z,11.26
2018-10-11T06:28:41.715Z,11.23
2018-10-11T06:31:10.064Z,11.42
2018-10-11T06:33:38.383Z,11.31
2018-10-11T06:36:06.818Z,11.36
2018-10-11T06:38:35.139Z,11.52
2018-10-11T06:41:03.487Z,11.77
2018-10-11T06:43:31.823Z,11.91
2018-10-11T06:46:00.184Z,12.13
2018-10-11T06:48:28.727Z,12.31
2018-10-11T06:50:57.094Z,12.63
2018-10-11T06:53:25.762Z,12.93
2018-10-11T06:55:54.079Z,13.71
2018-10-11T06:58:22.363Z,16.56
2018-10-11T07:00:50.678Z,19.38
2018-10-11T07:03:18.971Z,20.55
2018-10-11T07:05:47.270Z,21.05
2018-10-11T07:08:15.632Z,21.56
2018-10-11T07:10:43.911Z,23.30
2018-10-11T07:13:12.232Z,24.14
2018-10-11T07:15:40.548Z,24.70
2018-10-11T07:18:09.094Z,26.37
2018-10-11T07:20:37.399Z,26.35
2018-10-11T07:23:05.723Z,26.52
2018-10-11T07:25:34.019Z,26.62
2018-10-11T07:28:02.328Z,27.36
2018-10-11T07:30:30.613Z,25.19
2018-10-11T07:32:58.932Z,26.11
2018-10-11T07:35:27.359Z,27.30
2018-10-11T07:37:55.628Z,29.04
2018-10-11T07:40:23.934Z,30.07
2018-10-11T07:42:52.244Z,30.21
2018-10-11T07:45:20.532Z,31.07
2018-10-11T07:47:48.832Z,30.61
2018-10-11T07:50:17.135Z,30.83
2018-10-11T07:52:45.434Z,31.32
2018-10-11T07:55:13.975Z,30.14
2018-10-11T07:57:42.415Z,28.68
2018-10-11T08:00:12.464Z,29.13
2018-10-11T08:02:41.731Z,30.11
2018-10-11T08:05:10.276Z,29.45
2018-10-11T08:07:38.712Z,31.60
2018-10-11T08:10:07.231Z,31.26
2018-10-11T08:12:35.536Z,26.20
2018-10-11T08:15:03.891Z,26.51
2018-10-11T08:17:32.905Z,27.79
2018-10-11T08:20:00.900Z,27.38
2018-10-11T08:22:29.266Z,29.06
2018-10-11T08:24:57.649Z,31.65
2018-10-11T08:27:25.973Z,32.14
2018-10-11T08:29:54.291Z,31.75
2018-10-11T08:32:22.650Z,33.51
2018-10-11T08:34:50.894Z,34.38
2018-10-11T08:37:19.334Z,34.61
2018-10-11T08:39:47.670Z,34.63
2018-10-11T08:42:16.032Z,33.55
2018-10-11T08:44:44.351Z,35.16
2018-10-11T08:47:13.702Z,34.01
2018-10-11T08:49:42.064Z,33.27
2018-10-11T08:52:10.378Z,33.50
2018-10-11T08:54:47.132Z,33.03
2018-10-11T08:57:16.183Z,32.22
2018-10-11T08:59:44.666Z,32.38
2018-10-11T09:02:12.970Z,33.52
2018-10-11T09:04:41.280Z,34.32
2018-10-11T09:07:09.568Z,33.78
2018-10-11T09:09:37.916Z,36.62
2018-10-11T09:12:06.243Z,33.93
2018-10-11T09:14:34.585Z,31.55
2018-10-11T09:17:02.867Z,29.79
2018-10-11T09:19:31.175Z,28.46
2018-10-11T09:21:59.872Z,29.24
2018-10-11T09:24:28.187Z,32.49
2018-10-11T09:26:56.581Z,33.45
2018-10-11T09:29:24.878Z,32.46
2018-10-11T09:31:53.170Z,35.30
2018-10-11T09:34:21.495Z,36.02
2018-10-11T09:36:49.770Z,36.40
2018-10-11T09:39:18.038Z,36.50
2018-10-11T09:41:46.360Z,37.67
2018-10-11T09:44:14.647Z,38.26
2018-10-11T09:46:42.963Z,38.45
2018-10-11T09:49:11.247Z,38.95
2018-10-11T09:51:39.550Z,40.61
2018-10-11T09:54:07.847Z,39.42
2018-10-11T09:56:46.035Z,35.33
2018-10-11T09:59:14.308Z,35.30
2018-10-11T10:01:45.970Z,37.73
2018-10-11T10:04:14.476Z,38.69
2018-10-11T10:06:42.779Z,37.78
2018-10-11T10:09:11.067Z,37.63
2018-10-11T10:11:39.366Z,38.30
2018-10-11T10:14:07.651Z,36.57
2018-10-11T10:16:35.944Z,37.29
2018-10-11T10:19:04.255Z,39.55
2018-10-11T10:21:32.599Z,39.74
2018-10-11T10:24:00.875Z,38.04
2018-10-11T10:26:29.216Z,33.86
2018-10-11T10:28:57.450Z,32.11
2018-10-11T10:31:25.755Z,34.37
2018-10-11T10:33:54.046Z,37.80
2018-10-11T10:36:22.371Z,38.63
2018-10-11T10:38:50.652Z,37.39
2018-10-11T10:41:18.959Z,36.01
2018-10-11T10:43:47.244Z,36.79
2018-10-11T10:46:15.556Z,40.24
2018-10-11T10:48:43.892Z,38.21
2018-10-11T10:51:12.184Z,36.00
2018-10-11T10:53:40.479Z,34.67
2018-10-11T10:56:09.714Z,32.05
2018-10-11T10:58:38.014Z,30.75
2018-10-11T11:01:06.343Z,31.02
2018-10-11T11:03:34.694Z,31.42
2018-10-11T11:06:02.984Z,29.06
2018-10-11T11:08:41.843Z,28.36
2018-10-11T11:11:10.124Z,28.17
2018-10-11T11:13:38.588Z,27.03
2018-10-11T11:16:13.719Z,27.65
2018-10-11T11:18:42.055Z,27.75
2018-10-11T11:21:10.475Z,27.86
2018-10-11T11:23:38.771Z,28.25
2018-10-11T11:26:07.043Z,27.72
2018-10-11T11:28:35.375Z,29.11
2018-10-11T11:31:03.658Z,29.31
2018-10-11T11:33:31.970Z,32.01
2018-10-11T11:36:00.275Z,31.85
2018-10-11T11:38:28.583Z,32.97
2018-10-11T11:40:56.875Z,32.98
2018-10-11T11:43:25.179Z,34.15
2018-10-11T11:45:53.519Z,32.62
2018-10-11T11:48:21.779Z,36.08
2018-10-11T11:50:50.055Z,37.84
2018-10-11T11:53:18.387Z,34.56
2018-10-11T11:55:46.638Z,36.85
2018-10-11T11:58:14.948Z,36.70
2018-10-11T12:00:43.226Z,36.82
2018-10-11T12:03:11.531Z,38.41
2018-10-11T12:05:39.827Z,36.14
2018-10-11T12:08:08.135Z,37.64
2018-10-11T12:10:36.444Z,37.94
2018-10-11T12:13:07.887Z,37.84
2018-10-11T12:15:36.858Z,38.19
2018-10-11T12:18:06.282Z,35.34
2018-10-11T12:20:35.876Z,35.27
2018-10-11T12:23:05.290Z,36.17
2018-10-11T12:25:33.878Z,35.97
2018-10-11T12:28:02.560Z,35.03
2018-10-11T12:30:31.035Z,34.56
2018-10-11T12:32:59.452Z,35.54
2018-10-11T12:35:28.240Z,32.99
2018-10-11T12:37:56.600Z,29.99
2018-10-11T12:40:24.889Z,30.78
2018-10-11T12:42:53.191Z,31.48
2018-10-11T12:45:21.556Z,32.09
2018-10-11T12:47:49.838Z,33.31
2018-10-11T12:50:18.148Z,32.12
2018-10-11T12:52:46.436Z,32.24
2018-10-11T12:55:15.199Z,33.75
2018-10-11T12:57:43.558Z,33.74
2018-10-11T13:00:13.378Z,30.92
2018-10-11T13:02:41.672Z,28.56
2018-10-11T13:05:10.019Z,26.67
2018-10-11T13:07:38.323Z,26.23
2018-10-11T13:10:06.643Z,27.67
2018-10-11T13:12:34.947Z,28.39
2018-10-11T13:15:03.280Z,29.20
2018-10-11T13:17:35.282Z,29.44
2018-10-11T13:19:59.883Z,28.71
2018-10-11T13:22:28.158Z,28.28
2018-10-11T13:24:56.458Z,27.40
2018-10-11T13:27:24.747Z,27.40
2018-10-11T13:29:53.051Z,27.35
2018-10-11T13:32:21.311Z,26.61
2018-10-11T13:34:49.661Z,27.46
2018-10-11T13:37:17.880Z,26.83
2018-10-11T13:39:52.022Z,27.78
2018-10-11T13:42:14.744Z,28.02
2018-10-11T13:44:43.747Z,28.69
2018-10-11T13:47:12.044Z,27.92
2018-10-11T13:49:40.344Z,27.70
2018-10-11T13:52:13.191Z,27.26
2018-10-11T13:54:36.976Z,27.42
2018-10-11T13:57:05.296Z,26.22
2018-10-11T13:59:33.596Z,27.16
2018-10-11T14:02:02.187Z,26.21
2018-10-11T14:04:30.472Z,25.94
2018-10-11T14:06:58.760Z,25.00
2018-10-11T14:09:27.194Z,24.25
2018-10-11T14:11:55.529Z,23.99
2018-10-11T14:14:23.814Z,23.60
2018-10-11T14:16:52.112Z,23.51
2018-10-11T14:19:20.427Z,23.58
2018-10-11T14:21:48.706Z,23.39
2018-10-11T14:24:17.078Z,23.22
2018-10-11T14:26:45.296Z,22.92
2018-10-11T14:29:13.575Z,22.52
2018-10-11T14:31:41.877Z,22.83
2018-10-11T14:34:10.507Z,22.43
2018-10-11T14:36:39.315Z,22.28
2018-10-11T14:39:08.512Z,22.31
2018-10-11T14:41:37.291Z,22.38
2018-10-11T14:44:05.983Z,22.44
2018-10-11T14:46:34.356Z,22.80
2018-10-11T14:49:02.627Z,22.96
2018-10-11T14:51:31.012Z,22.53
2018-10-11T14:53:59.632Z,21.89
2018-10-11T14:56:27.500Z,22.07
2018-10-11T14:58:55.796Z,22.25
2018-10-11T15:01:24.228Z,22.38
2018-10-11T15:03:52.540Z,22.28
2018-10-11T15:06:20.838Z,21.98
2018-10-11T15:08:49.143Z,21.61
2018-10-11T15:11:17.543Z,21.66
2018-10-11T15:13:46.011Z,21.75
2018-10-11T15:16:14.309Z,21.36
2018-10-11T15:18:42.632Z,21.51
2018-10-11T15:21:10.911Z,21.72
2018-10-11T15:23:39.610Z,21.62
2018-10-11T15:26:07.914Z,21.47
2018-10-11T15:28:36.228Z,23.18
2018-10-11T15:31:04.555Z,24.18
2018-10-11T15:33:32.856Z,24.18
2018-10-11T15:36:01.502Z,24.03
2018-10-11T15:38:29.843Z,23.72
2018-10-11T15:40:58.122Z,23.74
2018-10-11T15:43:26.431Z,23.58
2018-10-11T15:45:54.711Z,23.60
2018-10-11T15:48:23.412Z,23.58
2018-10-11T15:50:51.683Z,23.59
2018-10-11T15:53:19.984Z,22.81
2018-10-11T15:55:48.296Z,22.52
2018-10-11T15:58:16.580Z,22.18
2018-10-11T16:00:44.876Z,21.63
2018-10-11T16:03:13.183Z,20.94
2018-10-11T16:05:41.731Z,20.80
2018-10-11T16:08:09.759Z,20.47
2018-10-11T16:10:38.059Z,20.72
2018-10-11T16:13:06.395Z,20.44
2018-10-11T16:15:34.675Z,20.47
2018-10-11T16:18:02.978Z,20.49
2018-10-11T16:20:31.227Z,20.47
2018-10-11T16:22:59.495Z,20.67
2018-10-11T16:25:27.787Z,20.46
2018-10-11T16:27:56.084Z,20.42
2018-10-11T16:30:24.374Z,20.14
2018-10-11T16:32:53.147Z,19.98
2018-10-11T16:35:21.447Z,19.71
2018-10-11T16:37:49.698Z,19.52
2018-10-11T16:40:17.992Z,19.30
2018-10-11T16:42:46.263Z,19.34
2018-10-11T16:45:14.571Z,19.36
2018-10-11T16:47:42.862Z,18.93
2018-10-11T16:50:11.362Z,18.86
2018-10-11T16:52:39.569Z,18.71
2018-10-11T16:55:07.863Z,18.64
2018-10-11T16:57:36.134Z,18.45
2018-10-11T17:00:04.477Z,18.42
2018-10-11T17:02:33.051Z,18.27
2018-10-11T17:05:01.341Z,18.20
2018-10-11T17:07:29.612Z,18.22
2018-10-11T17:09:58.249Z,18.19
2018-10-11T17:12:26.506Z,18.16
2018-10-11T17:14:54.795Z,18.06
2018-10-11T17:17:23.067Z,18.06
2018-10-11T17:19:51.365Z,17.97
2018-10-11T17:22:19.643Z,18.05
2018-10-11T17:24:48.020Z,17.97
2018-10-11T17:27:16.275Z,17.93
2018-10-11T17:29:44.651Z,17.91
2018-10-11T17:32:12.853Z,17.87
2018-10-11T17:34:41.168Z,17.88
2018-10-11T17:37:09.467Z,17.87
2018-10-11T17:39:38.067Z,17.86
2018-10-11T17:42:06.777Z,17.85
2018-10-11T17:44:35.027Z,17.84
2018-10-11T17:47:03.346Z,17.85
2018-10-11T17:49:31.615Z,17.81
2018-10-11T17:51:59.926Z,17.73
2018-10-11T17:54:28.195Z,17.80
2018-10-11T17:56:56.523Z,17.75
2018-10-11T17:59:24.784Z,17.73
2018-10-11T18:01:53.559Z,17.82
2018-10-11T18:04:22.519Z,17.74
2018-10-11T18:06:52.571Z,17.75
2018-10-11T18:09:20.852Z,17.71
2018-10-11T18:11:49.174Z,17.74
2018-10-11T18:14:17.468Z,17.62
2018-10-11T18:16:45.753Z,17.55
2018-10-11T18:19:14.036Z,17.49
2018-10-11T18:21:42.490Z,17.42
2018-10-11T18:24:10.688Z,17.40
2018-10-11T18:26:45.191Z,17.40
2018-10-11T18:29:13.521Z,17.42
2018-10-11T18:31:41.778Z,17.38
2018-10-11T18:34:10.264Z,17.38
2018-10-11T18:36:38.555Z,17.41
2018-10-11T18:39:10.291Z,17.44
2018-10-11T18:41:38.586Z,17.52
2018-10-11T18:44:06.887Z,17.56
2018-10-11T18:46:35.276Z,17.56
2018-10-11T18:49:03.640Z,17.55
2018-10-11T18:51:31.960Z,17.54
2018-10-11T18:54:00.251Z,17.60
2018-10-11T18:56:29.056Z,17.57
2018-10-11T18:58:57.347Z,17.64
2018-10-11T19:01:25.669Z,17.62
2018-10-11T19:03:53.957Z,17.68
2018-10-11T19:06:22.288Z,17.60
2018-10-11T19:08:50.561Z,17.70
2018-10-11T19:11:18.847Z,17.69
2018-10-11T19:13:47.176Z,17.64
2018-10-11T19:16:15.452Z,17.60
2018-10-11T19:18:43.743Z,17.62
2018-10-11T19:21:12.497Z,17.56
2018-10-11T19:23:40.787Z,17.58
2018-10-11T19:26:09.231Z,17.57
2018-10-11T19:28:38.272Z,17.54
2018-10-11T19:31:06.568Z,17.57
2018-10-11T19:33:34.866Z,17.55
2018-10-11T19:36:03.143Z,17.59
2018-10-11T19:38:31.423Z,17.49
2018-10-11T19:40:59.720Z,17.50
2018-10-11T19:43:28.020Z,17.50
2018-10-11T19:45:56.295Z,17.48
2018-10-11T19:48:24.594Z,17.58
2018-10-11T19:50:52.871Z,17.57
2018-10-11T19:53:21.191Z,17.63
2018-10-11T19:55:49.506Z,17.64
2018-10-11T19:58:17.806Z,17.67
2018-10-11T20:00:46.092Z,17.73
2018-10-11T20:03:14.396Z,17.73
2018-10-11T20:05:42.671Z,17.77
2018-10-11T20:08:11.620Z,17.78
2018-10-11T20:10:39.872Z,17.79
2018-10-11T20:13:08.143Z,17.86
2018-10-11T20:15:36.451Z,17.87
2018-10-11T20:18:12.885Z,17.76
2018-10-11T20:20:41.187Z,17.71
2018-10-11T20:23:09.469Z,17.84
2018-10-11T20:25:37.899Z,17.73
2018-10-11T20:28:06.359Z,17.79
2018-10-11T20:30:35.387Z,17.76
2018-10-11T20:33:03.670Z,17.78
2018-10-11T20:35:31.967Z,17.72
2018-10-11T20:38:00.231Z,17.69
2018-10-11T20:40:35.091Z,17.66
2018-10-11T20:43:03.383Z,17.58
2018-10-11T20:45:32.277Z,17.65
2018-10-11T20:48:00.704Z,17.53
2018-10-11T20:50:29.016Z,17.56
2018-10-11T20:52:57.468Z,17.55
2018-10-11T20:55:25.786Z,17.50
2018-10-11T20:57:54.060Z,17.52
2018-10-11T21:00:22.355Z,17.51
2018-10-11T21:02:50.623Z,17.51
2018-10-11T21:05:18.952Z,17.46
2018-10-11T21:07:47.226Z,17.43
2018-10-11T21:10:15.512Z,17.29
2018-10-11T21:12:43.775Z,17.16
2018-10-11T21:15:12.368Z,17.05
2018-10-11T21:17:40.643Z,17.07
2018-10-11T21:20:08.999Z,17.10
2018-10-11T21:22:37.219Z,17.07
2018-10-11T21:25:05.700Z,17.02
2018-10-11T21:27:34.006Z,16.86
2018-10-11T21:30:02.269Z,16.82
2018-10-11T21:32:30.571Z,16.90
2018-10-11T21:34:58.810Z,16.82
2018-10-11T21:37:27.078Z,16.84
2018-10-11T21:39:55.323Z,16.78
2018-10-11T21:42:23.627Z,16.78
2018-10-11T21:44:51.903Z,16.67
2018-10-11T21:47:20.405Z,16.67
2018-10-11T21:49:48.686Z,16.55
2018-10-11T21:52:17.228Z,16.50
2018-10-11T21:54:45.511Z,16.57
2018-10-11T21:57:13.806Z,16.64
2018-10-11T21:59:42.092Z,16.64
2018-10-11T22:02:10.831Z,16.66
2018-10-11T22:04:39.539Z,16.66
2018-10-11T22:07:07.867Z,16.70
2018-10-11T22:09:36.124Z,16.60
2018-10-11T22:12:04.447Z,16.62
2018-10-11T22:14:32.817Z,16.56
2018-10-11T22:17:01.026Z,16.44
2018-10-11T22:19:29.287Z,16.38
2018-10-11T22:21:57.567Z,16.39
2018-10-11T22:24:25.838Z,16.22
2018-10-11T22:26:54.143Z,16.22
2018-10-11T22:29:22.451Z,16.22
2018-10-11T22:31:50.739Z,16.29
2018-10-11T22:34:19.013Z,16.20
2018-10-11T22:36:47.402Z,16.19
2018-10-11T22:39:15.664Z,16.27
2018-10-11T22:41:43.950Z,16.37
2018-10-11T22:44:12.814Z,16.35
2018-10-11T22:46:41.814Z,16.27
2018-10-11T22:49:10.499Z,16.57
2018-10-11T22:51:39.111Z,16.57
2018-10-11T22:54:07.818Z,16.55
2018-10-11T22:56:36.399Z,16.64
2018-10-11T22:59:04.739Z,16.55
2018-10-11T23:01:33.000Z,16.42
2018-10-11T23:04:01.283Z,16.58
2018-10-11T23:06:29.735Z,16.50
2018-10-11T23:08:58.323Z,16.39
2018-10-11T23:11:26.576Z,16.33
2018-10-11T23:13:54.878Z,16.26
2018-10-11T23:16:23.160Z,16.18
2018-10-11T23:18:51.451Z,16.14
2018-10-11T23:21:20.183Z,16.14
2018-10-11T23:23:48.447Z,16.04
2018-10-11T23:26:16.720Z,16.08
2018-10-11T23:28:45.011Z,16.20
2018-10-11T23:31:13.279Z,16.29
2018-10-11T23:33:42.424Z,16.41
2018-10-11T23:36:10.837Z,16.69
2018-10-11T23:38:39.283Z,16.81
2018-10-11T23:41:07.807Z,16.79
2018-10-11T23:43:36.071Z,16.89
2018-10-11T23:46:04.364Z,16.98
2018-10-11T23:48:32.627Z,17.08
2018-10-11T23:51:00.916Z,17.07
2018-10-11T23:53:29.167Z,17.15
2018-10-11T23:55:57.455Z,17.11
2018-10-11T23:58:25.719Z,17.13
